Time;durP1;ratioP1;P1;durP2;ratioP2;P2;SDS_P1;SDS_P2;PMS_P1;PMS_P2;Temp;Humidity;BMP_temperature;BMP_pressure;BME280_temperature;BME280_humidity;BME280_pressure;Samples;Min_cycle;Max_cycle;Signal;HPM_P1;HPM_P2
2023/06/18 00:01:24;;;;;;;15.23;9.23;;;;;;;14.70;100.00;92807.13;5108308;28;20048;-73
2023/06/18 00:03:51;;;;;;;13.25;9.32;;;;;;;14.69;100.00;92814.09;5086520;28;20048;-73
2023/06/18 00:06:17;;;;;;;12.85;8.85;;;;;;;14.70;100.00;92805.31;5097729;28;20123;-73
2023/06/18 00:08:46;;;;;;;12.88;9.07;;;;;;;14.70;100.00;92800.16;5099980;28;20037;-73
2023/06/18 00:11:13;;;;;;;12.30;9.40;;;;;;;14.73;100.00;92803.25;5098100;28;20051;-73
2023/06/18 00:13:40;;;;;;;14.10;10.00;;;;;;;14.71;100.00;92806.09;5108533;28;20039;-74
2023/06/18 00:16:06;;;;;;;12.90;9.85;;;;;;;14.58;100.00;92804.66;5100180;28;20090;-74
2023/06/18 00:18:34;;;;;;;14.65;10.05;;;;;;;14.37;100.00;92804.50;5098145;28;20100;-73
2023/06/18 00:21:07;;;;;;;13.07;9.82;;;;;;;14.23;100.00;92801.50;5096566;28;20509;-73
2023/06/18 00:23:34;;;;;;;13.75;9.77;;;;;;;14.18;100.00;92798.88;5092259;28;20083;-73
2023/06/18 00:26:02;;;;;;;15.98;11.15;;;;;;;14.15;100.00;92800.13;5087940;28;20404;-73
2023/06/18 00:28:29;;;;;;;14.75;11.32;;;;;;;14.02;100.00;92798.69;5105684;28;20555;-73
2023/06/18 00:30:56;;;;;;;14.52;10.65;;;;;;;13.96;100.00;92797.06;5107330;28;20052;-73
2023/06/18 00:33:23;;;;;;;15.23;11.20;;;;;;;13.82;100.00;92794.06;5090179;28;20052;-73
2023/06/18 00:35:57;;;;;;;15.90;12.55;;;;;;;13.72;100.00;92792.16;5101366;28;20047;-73
2023/06/18 00:38:23;;;;;;;14.07;10.15;;;;;;;13.68;100.00;92790.25;5105824;28;20036;-72
2023/06/18 00:40:50;;;;;;;15.38;11.20;;;;;;;13.64;100.00;92792.53;5085305;28;20459;-73
2023/06/18 00:43:19;;;;;;;14.80;11.38;;;;;;;13.56;100.00;92790.38;5105079;28;20096;-73
2023/06/18 00:45:46;;;;;;;15.13;11.18;;;;;;;13.51;100.00;92788.50;5107659;28;20044;-72
2023/06/18 00:48:13;;;;;;;15.43;11.85;;;;;;;13.61;100.00;92785.28;5091179;28;20048;-73
2023/06/18 00:50:41;;;;;;;16.05;11.48;;;;;;;13.56;100.00;92787.81;5102744;28;20120;-73
2023/06/18 00:53:12;;;;;;;16.63;13.10;;;;;;;13.61;100.00;92788.63;5107902;28;20044;-73
2023/06/18 00:55:41;;;;;;;17.35;13.00;;;;;;;13.68;100.00;92775.56;5084821;28;20530;-72
2023/06/18 00:58:07;;;;;;;17.33;12.73;;;;;;;13.72;100.00;92768.13;5091983;28;20070;-73
2023/06/18 01:00:36;;;;;;;16.73;11.43;;;;;;;13.83;100.00;92782.72;5086640;28;20056;-73
2023/06/18 01:03:04;;;;;;;19.83;13.65;;;;;;;13.95;100.00;92779.22;5088865;28;20048;-73
2023/06/18 01:05:33;;;;;;;16.80;11.95;;;;;;;14.00;100.00;92780.09;5082846;28;20070;-73
2023/06/18 01:08:06;;;;;;;18.00;13.02;;;;;;;13.82;100.00;92755.34;5102716;28;20039;-74
2023/06/18 01:10:33;;;;;;;16.13;11.55;;;;;;;14.07;100.00;92784.28;5079973;28;20110;-73
2023/06/18 01:13:00;;;;;;;19.13;12.40;;;;;;;14.15;100.00;92779.47;5106382;28;20417;-73
2023/06/18 01:15:27;;;;;;;16.23;12.40;;;;;;;14.08;100.00;92783.25;5087651;28;20563;-73
2023/06/18 01:17:57;;;;;;;17.10;12.10;;;;;;;14.09;100.00;92788.19;5090395;28;20493;-74
2023/06/18 01:20:27;;;;;;;16.88;12.40;;;;;;;14.00;100.00;92789.63;5103284;28;20139;-73
2023/06/18 01:23:00;;;;;;;16.58;11.82;;;;;;;14.09;100.00;92787.38;5094112;28;20493;-73
2023/06/18 01:25:29;;;;;;;16.63;12.07;;;;;;;14.00;100.00;92780.09;5104575;28;20447;-73
2023/06/18 01:27:57;;;;;;;17.33;11.98;;;;;;;14.11;100.00;92780.16;5107296;28;20044;-73
2023/06/18 01:30:24;;;;;;;17.85;12.13;;;;;;;14.12;100.00;92782.53;5083298;28;20109;-73
2023/06/18 01:32:54;;;;;;;17.67;12.45;;;;;;;14.20;100.00;92786.47;5098546;28;20048;-73
2023/06/18 01:35:22;;;;;;;15.65;11.55;;;;;;;14.24;100.00;92787.56;5101328;28;20456;-73
2023/06/18 01:38:11;;;;;;;17.25;12.68;;;;;;;14.30;100.00;92783.22;5088379;28;20044;-73
2023/06/18 01:40:46;;;;;;;17.23;12.30;;;;;;;14.37;100.00;92783.03;5086554;28;20060;-74
2023/06/18 01:43:22;;;;;;;15.85;12.18;;;;;;;14.32;100.00;92785.56;5083338;28;20048;-73
2023/06/18 01:45:54;;;;;;;15.88;12.00;;;;;;;14.30;100.00;92786.59;5100415;28;20391;-74
2023/06/18 01:48:23;;;;;;;15.68;11.73;;;;;;;14.36;100.00;92800.34;5089519;28;20050;-72
2023/06/18 01:50:52;;;;;;;16.30;12.55;;;;;;;14.35;100.00;92798.75;5104541;28;20043;-73
2023/06/18 01:53:21;;;;;;;14.65;11.35;;;;;;;14.41;100.00;92792.63;5111591;28;20054;-72
2023/06/18 01:55:51;;;;;;;15.88;11.07;;;;;;;14.46;100.00;92791.91;5101134;28;20036;-72
2023/06/18 01:58:21;;;;;;;18.05;11.82;;;;;;;14.40;100.00;92801.41;5098902;28;20515;-72
2023/06/18 02:00:48;;;;;;;16.20;11.80;;;;;;;14.42;100.00;92801.97;5109068;28;20396;-72
2023/06/18 02:03:15;;;;;;;16.75;11.73;;;;;;;14.46;100.00;92796.28;5096698;28;20134;-72
2023/06/18 02:05:42;;;;;;;15.40;11.43;;;;;;;14.51;100.00;92798.94;5090558;28;20090;-72
2023/06/18 02:08:10;;;;;;;16.75;12.27;;;;;;;14.55;100.00;92805.19;5103456;28;20040;-72
2023/06/18 02:10:37;;;;;;;17.10;12.40;;;;;;;14.55;100.00;92800.78;5086353;28;20102;-73
2023/06/18 02:13:03;;;;;;;16.30;12.27;;;;;;;14.58;100.00;92802.09;5095288;28;20494;-73
2023/06/18 02:15:30;;;;;;;16.58;12.20;;;;;;;14.56;100.00;92793.81;5091302;28;20056;-73
2023/06/18 02:17:57;;;;;;;17.25;12.15;;;;;;;14.50;100.00;92805.13;5089070;28;20048;-72
2023/06/18 02:20:24;;;;;;;16.52;12.43;;;;;;;14.47;100.00;92803.81;5086766;28;20065;-72
2023/06/18 02:22:52;;;;;;;15.70;11.60;;;;;;;14.35;100.00;92801.34;5097001;28;20127;-72
2023/06/18 02:25:28;;;;;;;16.73;12.50;;;;;;;14.00;100.00;92803.31;5101093;28;20044;-72
2023/06/18 02:27:56;;;;;;;17.33;11.68;;;;;;;14.15;100.00;92815.63;5085224;28;20044;-72
2023/06/18 02:30:22;;;;;;;18.58;12.50;;;;;;;14.16;100.00;92814.59;5082663;28;20093;-72
2023/06/18 02:32:49;;;;;;;19.30;12.95;;;;;;;14.16;100.00;92806.84;5097928;28;20494;-72
2023/06/18 02:35:16;;;;;;;16.65;13.02;;;;;;;14.22;100.00;92810.28;5096203;28;20047;-72
2023/06/18 02:37:43;;;;;;;19.00;13.45;;;;;;;14.22;100.00;92807.69;5083880;28;20048;-72
2023/06/18 02:40:13;;;;;;;17.05;11.95;;;;;;;14.27;100.00;92802.56;5094095;28;20063;-72
2023/06/18 02:42:47;;;;;;;16.23;11.60;;;;;;;14.23;100.00;92814.41;5094278;28;20083;-72
2023/06/18 02:45:15;;;;;;;16.00;11.52;;;;;;;14.20;100.00;92791.66;5095712;28;20056;-72
2023/06/18 02:47:41;;;;;;;17.90;13.27;;;;;;;14.28;100.00;92817.06;5091995;28;20052;-72
2023/06/18 02:50:09;;;;;;;16.23;11.82;;;;;;;14.37;100.00;92814.81;5082955;28;20501;-72
2023/06/18 02:52:35;;;;;;;17.17;12.20;;;;;;;14.40;100.00;92808.41;5088830;28;20101;-72
2023/06/18 02:55:02;;;;;;;17.30;12.35;;;;;;;14.42;100.00;92817.47;5085645;28;20040;-72
2023/06/18 02:57:29;;;;;;;16.95;12.40;;;;;;;14.37;100.00;92814.03;5091998;28;20441;-72
2023/06/18 02:59:57;;;;;;;17.48;12.93;;;;;;;14.42;100.00;92814.88;5095797;28;20106;-72
2023/06/18 03:02:23;;;;;;;17.05;11.35;;;;;;;14.52;100.00;92821.94;5103434;28;20044;-72
2023/06/18 03:04:50;;;;;;;16.15;11.80;;;;;;;14.60;100.00;92825.91;5100538;28;20149;-72
2023/06/18 03:07:18;;;;;;;15.30;11.43;;;;;;;14.40;100.00;92792.91;5085911;28;20048;-72
2023/06/18 03:09:45;;;;;;;16.10;11.75;;;;;;;14.58;100.00;92827.94;5089449;28;20044;-73
2023/06/18 03:12:12;;;;;;;17.30;10.88;;;;;;;14.67;100.00;92825.69;5100251;28;20052;-73
2023/06/18 03:14:38;;;;;;;16.05;11.82;;;;;;;14.70;100.00;92827.81;5109560;28;20039;-73
2023/06/18 03:17:06;;;;;;;14.82;10.98;;;;;;;14.73;100.00;92818.78;5093161;28;20093;-73
2023/06/18 03:19:33;;;;;;;15.65;12.10;;;;;;;14.75;100.00;92830.47;5084516;28;20117;-73
2023/06/18 03:22:00;;;;;;;15.25;11.65;;;;;;;14.74;100.00;92833.25;5101953;28;20047;-73
2023/06/18 03:24:27;;;;;;;14.80;11.75;;;;;;;14.67;100.00;92831.66;5094714;28;20052;-73
2023/06/18 03:26:53;;;;;;;15.60;11.55;;;;;;;14.65;100.00;92838.88;5094068;28;20092;-73
2023/06/18 03:29:20;;;;;;;15.23;11.48;;;;;;;14.55;100.00;92839.53;5081927;28;20606;-73
2023/06/18 03:31:47;;;;;;;16.20;10.85;;;;;;;14.58;100.00;92833.09;5099223;28;20040;-73
2023/06/18 03:34:15;;;;;;;16.63;11.90;;;;;;;14.59;100.00;92834.69;5089573;28;20047;-74
2023/06/18 03:36:43;;;;;;;15.00;11.25;;;;;;;14.53;100.00;92830.47;5088763;28;20043;-74
2023/06/18 03:39:10;;;;;;;14.40;10.85;;;;;;;14.61;100.00;92830.03;5099138;28;20484;-73
2023/06/18 03:41:37;;;;;;;16.58;11.50;;;;;;;14.63;100.00;92827.97;5108534;28;20056;-73
2023/06/18 03:44:04;;;;;;;17.60;13.10;;;;;;;14.62;100.00;92826.44;5100633;28;20040;-73
2023/06/18 03:46:34;;;;;;;16.02;11.60;;;;;;;14.65;100.00;92820.00;5092169;28;20109;-73
2023/06/18 03:49:01;;;;;;;17.95;12.73;;;;;;;14.63;100.00;92827.97;5099565;28;20839;-73
2023/06/18 03:51:29;;;;;;;16.42;12.48;;;;;;;14.69;100.00;92829.59;5088638;28;20044;-73
2023/06/18 03:53:56;;;;;;;15.27;11.38;;;;;;;14.73;100.00;92823.94;5108284;28;20097;-73
2023/06/18 03:56:23;;;;;;;16.98;11.05;;;;;;;14.30;100.00;92838.25;5096253;28;20118;-74
2023/06/18 03:58:49;;;;;;;16.08;12.25;;;;;;;14.33;100.00;92829.25;5096068;28;20133;-74
2023/06/18 04:01:16;;;;;;;16.15;11.75;;;;;;;14.37;100.00;92835.50;5091913;28;20067;-74
2023/06/18 04:03:43;;;;;;;15.82;11.68;;;;;;;14.11;100.00;92834.41;5109252;28;20438;-74
2023/06/18 04:06:10;;;;;;;17.30;13.00;;;;;;;14.07;100.00;92835.94;5090893;28;20611;-73
2023/06/18 04:08:38;;;;;;;15.43;11.55;;;;;;;14.00;100.00;92839.47;5082884;28;20048;-73
2023/06/18 04:11:04;;;;;;;17.33;12.02;;;;;;;13.99;100.00;92845.63;5098437;28;20100;-73
2023/06/18 04:13:31;;;;;;;17.52;12.95;;;;;;;13.97;100.00;92834.78;5096327;28;20051;-72
2023/06/18 04:15:58;;;;;;;17.45;12.95;;;;;;;14.00;100.00;92836.88;5098701;28;20052;-72
2023/06/18 04:18:26;;;;;;;20.15;14.07;;;;;;;13.92;100.00;92842.47;5099661;28;20617;-73
2023/06/18 04:20:52;;;;;;;16.92;13.05;;;;;;;14.05;100.00;92843.91;5090071;28;20067;-73
2023/06/18 04:23:19;;;;;;;17.10;12.95;;;;;;;14.13;100.00;92846.06;5108255;28;20051;-73
2023/06/18 04:25:47;;;;;;;18.52;13.55;;;;;;;14.25;100.00;92845.16;5090414;28;20052;-73
2023/06/18 04:28:14;;;;;;;20.02;13.52;;;;;;;14.08;100.00;92832.31;5101468;28;20489;-73
2023/06/18 04:30:41;;;;;;;17.45;13.02;;;;;;;14.26;100.00;92852.66;5094819;28;20047;-73
2023/06/18 04:33:08;;;;;;;18.92;13.20;;;;;;;14.38;100.00;92851.75;5088981;28;20054;-73
2023/06/18 04:35:34;;;;;;;16.70;12.80;;;;;;;14.40;100.00;92854.91;5108758;28;20058;-73
2023/06/18 04:38:01;;;;;;;17.83;13.23;;;;;;;14.28;100.00;92827.41;5102748;28;20049;-73
2023/06/18 04:40:28;;;;;;;15.65;12.20;;;;;;;14.56;100.00;92854.03;5082448;28;20772;-73
2023/06/18 04:42:56;;;;;;;16.27;11.88;;;;;;;14.73;100.00;92860.13;5094854;28;20044;-73
2023/06/18 04:45:23;;;;;;;14.90;11.30;;;;;;;14.81;100.00;92867.47;5086075;28;20047;-73
2023/06/18 04:47:49;;;;;;;17.13;12.77;;;;;;;14.88;100.00;92859.53;5086240;28;20773;-73
2023/06/18 04:50:16;;;;;;;16.98;12.07;;;;;;;14.93;100.00;92860.38;5099136;28;20888;-73
2023/06/18 04:52:43;;;;;;;15.00;11.73;;;;;;;15.03;100.00;92866.63;5108292;28;20152;-73
2023/06/18 04:55:10;;;;;;;17.08;12.40;;;;;;;15.00;100.00;92859.38;5095489;28;20056;-73
2023/06/18 04:57:37;;;;;;;15.05;11.25;;;;;;;15.13;100.00;92874.50;5080554;28;20102;-74
2023/06/18 05:00:06;;;;;;;18.55;11.75;;;;;;;15.15;100.00;92867.28;5091644;28;20830;-74
2023/06/18 05:02:34;;;;;;;14.68;11.70;;;;;;;15.23;100.00;92874.59;5102931;28;20047;-74
2023/06/18 05:05:00;;;;;;;14.98;11.07;;;;;;;15.22;100.00;92862.69;5107617;28;20040;-73
2023/06/18 05:07:27;;;;;;;16.52;11.43;;;;;;;15.32;100.00;92879.31;5098305;28;20838;-73
2023/06/18 05:09:54;;;;;;;16.08;11.98;;;;;;;15.30;100.00;92865.81;5090160;28;20039;-73
2023/06/18 05:12:20;;;;;;;15.55;11.45;;;;;;;15.38;100.00;92877.53;5107995;28;20051;-73
2023/06/18 05:14:47;;;;;;;21.23;12.68;;;;;;;15.43;100.00;92886.13;5089451;28;20044;-73
2023/06/18 05:17:15;;;;;;;15.40;11.63;;;;;;;15.48;100.00;92886.16;5097247;28;20136;-74
2023/06/18 05:19:42;;;;;;;16.95;12.13;;;;;;;15.57;100.00;92896.06;5089440;28;20100;-73
2023/06/18 05:22:09;;;;;;;14.25;10.75;;;;;;;15.60;100.00;92887.81;5092769;28;20101;-73
2023/06/18 05:24:35;;;;;;;14.07;10.52;;;;;;;15.57;100.00;92896.06;5090975;28;20440;-74
2023/06/18 05:27:02;;;;;;;15.38;11.80;;;;;;;15.59;100.00;92904.34;5107932;28;20100;-73
2023/06/18 05:29:29;;;;;;;16.20;12.10;;;;;;;15.70;100.00;92898.19;5107779;28;20052;-74
2023/06/18 05:31:55;;;;;;;15.40;11.27;;;;;;;15.74;100.00;92903.69;5089468;28;20051;-77
2023/06/18 05:34:23;;;;;;;14.90;11.55;;;;;;;15.68;100.00;92913.22;5095023;28;20063;-74
2023/06/18 05:36:50;;;;;;;17.35;11.85;;;;;;;15.70;100.00;92915.56;5105187;28;20592;-73
2023/06/18 05:39:17;;;;;;;16.65;11.32;;;;;;;15.66;100.00;92917.88;5093644;28;20120;-74
2023/06/18 05:41:44;;;;;;;14.73;10.45;;;;;;;15.68;100.00;92918.41;5103398;28;20550;-74
2023/06/18 05:44:10;;;;;;;15.77;11.90;;;;;;;15.70;100.00;92916.31;5091645;28;20101;-74
2023/06/18 05:46:37;;;;;;;15.38;10.70;;;;;;;15.76;100.00;92920.53;5104238;28;20971;-73
2023/06/18 05:49:04;;;;;;;15.48;11.27;;;;;;;15.81;100.00;92930.16;5107769;28;20043;-74
2023/06/18 05:51:32;;;;;;;13.48;10.88;;;;;;;15.83;100.00;92927.31;5090652;28;20289;-74
2023/06/18 05:53:58;;;;;;;16.48;11.85;;;;;;;15.83;100.00;92932.50;5094414;28;20851;-73
2023/06/18 05:56:25;;;;;;;16.65;11.23;;;;;;;15.85;100.00;92938.97;5107704;28;20450;-73
2023/06/18 05:58:53;;;;;;;15.23;10.73;;;;;;;15.89;100.00;92934.84;5091998;28;20090;-73
2023/06/18 06:01:20;;;;;;;14.23;10.80;;;;;;;15.91;100.00;92934.59;5090965;28;20051;-73
2023/06/18 06:03:46;;;;;;;15.10;11.10;;;;;;;15.84;100.00;92924.44;5107170;28;20097;-74
2023/06/18 06:06:13;;;;;;;14.63;10.82;;;;;;;15.49;100.00;92918.78;5107562;28;20048;-74
2023/06/18 06:08:41;;;;;;;15.60;10.85;;;;;;;15.61;100.00;92943.72;5094150;28;20542;-73
2023/06/18 06:11:08;;;;;;;13.70;10.32;;;;;;;15.56;100.00;92947.03;5093281;28;20500;-74
2023/06/18 06:13:35;;;;;;;16.35;11.90;;;;;;;15.36;100.00;92942.47;5099690;28;20055;-73
2023/06/18 06:16:02;;;;;;;13.68;10.23;;;;;;;15.26;100.00;92961.28;5097470;28;20043;-74
2023/06/18 06:18:28;;;;;;;15.50;11.38;;;;;;;15.10;100.00;92937.84;5106911;28;20052;-74
2023/06/18 06:20:55;;;;;;;16.77;11.38;;;;;;;15.15;100.00;92951.88;5107140;28;20108;-73
2023/06/18 06:23:22;;;;;;;14.95;11.60;;;;;;;15.15;100.00;92960.41;5090523;28;20569;-74
2023/06/18 06:25:50;;;;;;;15.32;11.82;;;;;;;14.95;100.00;92943.66;5093258;28;20047;-74
2023/06/18 06:28:17;;;;;;;14.20;10.88;;;;;;;15.09;100.00;92962.16;5093795;28;20122;-74
2023/06/18 06:30:43;;;;;;;18.10;11.75;;;;;;;15.18;100.00;92961.72;5097471;28;20043;-74
2023/06/18 06:33:10;;;;;;;13.98;11.52;;;;;;;15.23;100.00;92967.72;5108998;28;20047;-73
2023/06/18 06:35:37;;;;;;;15.45;11.55;;;;;;;15.26;100.00;92976.00;5110718;28;20108;-73
2023/06/18 06:38:04;;;;;;;13.25;10.50;;;;;;;15.26;100.00;92974.22;5096154;28;20938;-73
2023/06/18 06:40:31;;;;;;;18.35;11.38;;;;;;;15.28;100.00;92969.56;5104587;28;20051;-73
2023/06/18 06:42:59;;;;;;;13.82;9.85;;;;;;;15.18;100.00;92974.66;5078642;28;20048;-73
2023/06/18 06:45:27;;;;;;;14.75;10.95;;;;;;;15.19;100.00;92973.63;5096729;28;20416;-73
2023/06/18 06:47:54;;;;;;;15.77;11.05;;;;;;;15.16;100.00;92979.28;5104575;28;20051;-73
2023/06/18 06:50:21;;;;;;;15.40;11.25;;;;;;;15.13;100.00;92980.56;5079913;28;20102;-73
2023/06/18 06:52:47;;;;;;;16.20;11.40;;;;;;;15.01;100.00;92985.88;5097748;28;20051;-73
2023/06/18 06:55:14;;;;;;;15.45;11.40;;;;;;;15.05;100.00;92988.75;5110262;28;20542;-73
2023/06/18 06:57:41;;;;;;;13.15;11.15;;;;;;;15.07;100.00;92987.50;5094683;28;20040;-73
2023/06/18 07:00:11;;;;;;;15.23;11.15;;;;;;;15.01;100.00;92991.06;5097277;28;20821;-73
2023/06/18 07:02:38;;;;;;;15.00;10.68;;;;;;;15.15;100.00;92983.69;5090353;28;20083;-73
2023/06/18 07:05:06;;;;;;;15.35;11.30;;;;;;;15.21;100.00;92987.91;5102186;28;20047;-73
2023/06/18 07:07:33;;;;;;;15.02;11.48;;;;;;;15.16;100.00;92990.44;5105134;28;20131;-73
2023/06/18 07:10:00;;;;;;;14.90;11.30;;;;;;;15.25;100.00;92987.41;5084971;28;20097;-73
2023/06/18 07:12:26;;;;;;;13.70;10.73;;;;;;;15.34;100.00;92991.91;5106599;28;20079;-73
2023/06/18 07:14:53;;;;;;;15.23;11.63;;;;;;;15.41;100.00;92998.69;5109551;28;20096;-73
2023/06/18 07:17:21;;;;;;;14.85;11.50;;;;;;;15.40;100.00;92987.53;5098803;28;20447;-73
2023/06/18 07:19:48;;;;;;;16.05;11.77;;;;;;;15.22;100.00;92996.44;5097711;28;20040;-73
2023/06/18 07:22:15;;;;;;;14.82;11.07;;;;;;;15.19;100.00;92991.75;5098136;28;20052;-73
2023/06/18 07:24:41;;;;;;;14.65;11.07;;;;;;;15.30;100.00;92997.78;5095097;28;20424;-73
2023/06/18 07:27:08;;;;;;;14.48;10.95;;;;;;;15.22;100.00;92999.00;5098643;28;20048;-73
2023/06/18 07:29:35;;;;;;;16.30;11.50;;;;;;;15.27;100.00;92988.72;5092167;28;20097;-73
2023/06/18 07:32:02;;;;;;;15.25;10.75;;;;;;;15.45;100.00;92994.56;5108450;28;20043;-73
2023/06/18 07:34:30;;;;;;;16.05;11.57;;;;;;;15.54;100.00;92998.28;5084955;28;20045;-73
2023/06/18 07:36:57;;;;;;;14.00;10.85;;;;;;;15.67;100.00;93004.09;5093245;28;20036;-73
2023/06/18 07:39:23;;;;;;;13.25;9.73;;;;;;;15.66;100.00;93000.72;5109577;28;20125;-73
2023/06/18 07:41:50;;;;;;;13.57;10.35;;;;;;;15.66;100.00;93015.47;5089721;28;20092;-74
2023/06/18 07:44:17;;;;;;;12.60;9.65;;;;;;;15.77;100.00;92999.78;5100213;28;20047;-73
2023/06/18 07:46:44;;;;;;;12.20;9.52;;;;;;;15.86;100.00;92997.53;5101540;28;20398;-73
2023/06/18 07:49:11;;;;;;;12.63;9.27;;;;;;;15.97;100.00;92995.81;5083673;28;20101;-73
2023/06/18 07:51:40;;;;;;;14.20;10.35;;;;;;;16.13;100.00;93004.47;5090072;28;20047;-73
2023/06/18 07:54:06;;;;;;;12.48;9.45;;;;;;;16.24;100.00;93009.72;5103099;28;20051;-73
2023/06/18 07:56:33;;;;;;;13.07;9.00;;;;;;;16.27;100.00;93006.63;5108682;28;20093;-72
2023/06/18 07:59:00;;;;;;;12.38;9.23;;;;;;;16.39;100.00;93017.59;5084498;28;20094;-73
2023/06/18 08:01:27;;;;;;;11.73;8.88;;;;;;;16.49;100.00;93018.69;5098599;28;20051;-74
2023/06/18 08:03:54;;;;;;;11.95;9.27;;;;;;;16.28;100.00;93003.00;5100298;28;20051;-73
2023/06/18 08:06:21;;;;;;;12.82;9.45;;;;;;;16.55;100.00;93017.69;5096361;28;20048;-73
2023/06/18 08:08:49;;;;;;;12.90;9.63;;;;;;;16.59;100.00;93034.31;5088690;28;20417;-73
2023/06/18 08:11:17;;;;;;;12.27;8.35;;;;;;;16.48;100.00;93032.69;5094895;28;20579;-73
2023/06/18 08:13:43;;;;;;;12.45;9.48;;;;;;;16.64;100.00;93025.75;5109046;28;21254;-73
2023/06/18 08:16:10;;;;;;;12.05;9.00;;;;;;;16.78;100.00;93031.28;5082151;28;20452;-73
2023/06/18 08:18:37;;;;;;;10.27;8.02;;;;;;;16.73;100.00;93013.88;5090061;28;20125;-73
2023/06/18 08:21:05;;;;;;;11.10;8.75;;;;;;;16.83;100.00;93042.47;5081859;28;20475;-73
2023/06/18 08:23:31;;;;;;;12.27;7.88;;;;;;;16.80;100.00;93039.59;5108076;28;20051;-73
2023/06/18 08:25:59;;;;;;;9.75;7.57;;;;;;;16.68;100.00;93044.97;5088820;28;20040;-73
2023/06/18 08:28:26;;;;;;;10.35;7.82;;;;;;;16.58;100.00;93042.31;5108009;28;20480;-73
2023/06/18 08:30:53;;;;;;;10.38;7.32;;;;;;;16.66;100.00;93042.63;5102528;28;20047;-73
2023/06/18 08:33:20;;;;;;;8.15;6.60;;;;;;;16.54;100.00;93048.00;5086898;28;20477;-73
2023/06/18 08:35:46;;;;;;;6.88;5.68;;;;;;;16.35;100.00;93044.25;5108157;28;20043;-72
2023/06/18 08:38:13;;;;;;;9.25;7.13;;;;;;;16.21;100.00;93056.88;5105918;28;20105;-73
2023/06/18 08:40:50;;;;;;;11.50;7.43;;;;;;;16.12;100.00;93059.13;5088618;28;20052;-73
2023/06/18 08:43:22;;;;;;;8.30;6.80;;;;;;;15.92;100.00;93028.66;5089560;28;20054;-73
2023/06/18 08:45:52;;;;;;;9.77;7.80;;;;;;;15.98;100.00;93033.63;5102974;28;20043;-72
2023/06/18 08:48:24;;;;;;;9.63;7.68;;;;;;;16.09;100.00;93057.81;5104931;28;20061;-73
2023/06/18 08:50:59;;;;;;;10.10;7.57;;;;;;;16.00;100.00;93060.09;5090553;28;20040;-72
2023/06/18 08:53:34;;;;;;;8.73;7.20;;;;;;;16.03;100.00;93061.41;5104415;28;20040;-73
2023/06/18 08:56:02;;;;;;;11.32;7.53;;;;;;;16.01;100.00;93071.22;5107461;28;20089;-73
2023/06/18 08:58:34;;;;;;;11.40;8.25;;;;;;;16.06;100.00;93066.06;5081845;28;20142;-72
2023/06/18 09:01:02;;;;;;;13.48;9.50;;;;;;;16.02;100.00;93058.03;5092176;28;20046;-72
2023/06/18 09:03:29;;;;;;;13.02;9.00;;;;;;;16.30;100.00;93068.34;5102040;28;20104;-72
2023/06/18 09:05:56;;;;;;;13.00;9.60;;;;;;;16.32;100.00;93066.28;5107400;28;20047;-73
2023/06/18 09:08:25;;;;;;;16.52;12.02;;;;;;;16.45;100.00;93069.47;5105223;28;20043;-72
2023/06/18 09:10:55;;;;;;;12.27;8.70;;;;;;;16.49;100.00;93073.13;5076377;28;20044;-72
2023/06/18 09:13:22;;;;;;;9.77;7.68;;;;;;;16.28;100.00;93080.75;5096933;28;20550;-72
2023/06/18 09:15:50;;;;;;;9.60;7.70;;;;;;;16.33;100.00;93073.00;5107711;28;20052;-72
2023/06/18 09:18:16;;;;;;;12.13;9.00;;;;;;;16.41;100.00;93069.19;5107227;28;20354;-72
2023/06/18 09:20:44;;;;;;;10.50;8.63;;;;;;;16.52;100.00;93076.00;5089258;28;20055;-72
2023/06/18 09:23:10;;;;;;;10.10;7.80;;;;;;;16.72;100.00;93074.56;5100676;28;20463;-72
2023/06/18 09:25:37;;;;;;;9.27;6.80;;;;;;;16.89;100.00;93081.41;5107418;28;20093;-72
2023/06/18 09:28:05;;;;;;;9.73;7.07;;;;;;;17.03;100.00;93085.13;5101267;28;20064;-72
2023/06/18 09:30:31;;;;;;;9.77;6.65;;;;;;;17.01;100.00;93069.00;5081557;28;20093;-73
2023/06/18 09:33:00;;;;;;;9.52;7.00;;;;;;;17.10;100.00;93087.50;5103808;28;20048;-72
2023/06/18 09:35:27;;;;;;;8.57;6.78;;;;;;;17.13;100.00;93086.19;5090247;28;20043;-73
2023/06/18 09:37:54;;;;;;;8.80;6.85;;;;;;;17.25;100.00;93091.97;5101284;28;20047;-72
2023/06/18 09:40:25;;;;;;;8.65;6.10;;;;;;;17.35;100.00;93096.41;5106807;28;20056;-73
2023/06/18 09:42:52;;;;;;;8.27;6.35;;;;;;;17.57;100.00;93087.63;5096782;28;20063;-72
2023/06/18 09:45:21;;;;;;;8.07;6.10;;;;;;;17.60;100.00;93094.94;5095151;28;20047;-72
2023/06/18 09:47:48;;;;;;;8.98;6.50;;;;;;;17.59;100.00;93093.38;5107444;28;20039;-72
2023/06/18 09:50:17;;;;;;;10.30;6.55;;;;;;;17.43;100.00;93082.16;5105132;28;20052;-72
2023/06/18 09:52:45;;;;;;;9.30;6.43;;;;;;;17.55;100.00;93089.72;5083715;28;20101;-72
2023/06/18 09:55:29;;;;;;;16.95;10.32;;;;;;;17.42;100.00;93086.56;5086709;28;20059;-72
2023/06/18 09:57:57;;;;;;;10.02;5.90;;;;;;;17.47;100.00;93094.38;5102455;28;20814;-72
2023/06/18 10:00:25;;;;;;;9.13;6.78;;;;;;;17.68;100.00;93088.47;5107264;28;20044;-72
2023/06/18 10:02:52;;;;;;;8.25;6.35;;;;;;;17.83;100.00;93091.06;5095358;28;20055;-73
2023/06/18 10:05:21;;;;;;;7.72;5.35;;;;;;;18.02;100.00;93093.94;5092079;28;20043;-73
2023/06/18 10:07:49;;;;;;;9.10;6.22;;;;;;;18.03;100.00;93092.94;5109142;28;20097;-72
2023/06/18 10:10:17;;;;;;;6.25;4.97;;;;;;;18.02;100.00;93096.53;5110862;28;20066;-72
2023/06/18 10:12:47;;;;;;;9.25;6.28;;;;;;;17.90;100.00;93088.22;5085832;28;20471;-72
2023/06/18 10:15:15;;;;;;;7.65;6.07;;;;;;;17.90;100.00;93096.81;5100065;28;20052;-72
2023/06/18 10:17:46;;;;;;;8.63;6.45;;;;;;;18.13;100.00;93086.97;5088404;28;20044;-72
2023/06/18 10:20:15;;;;;;;11.00;6.38;;;;;;;18.11;100.00;93096.06;5104836;28;20044;-72
2023/06/18 10:22:46;;;;;;;6.97;5.38;;;;;;;18.33;100.00;93100.25;5088477;28;20044;-72
2023/06/18 10:25:13;;;;;;;6.43;4.88;;;;;;;18.47;100.00;93097.91;5104718;28;20722;-72
2023/06/18 10:27:41;;;;;;;6.82;4.90;;;;;;;18.37;100.00;93101.28;5104614;28;20040;-72
2023/06/18 10:30:09;;;;;;;5.95;4.53;;;;;;;18.40;100.00;93098.94;5096470;28;20105;-72
2023/06/18 10:32:37;;;;;;;6.15;4.93;;;;;;;18.40;100.00;93096.34;5111128;28;20054;-72
2023/06/18 10:35:09;;;;;;;9.85;6.40;;;;;;;18.38;100.00;93103.59;5088496;28;20097;-72
2023/06/18 10:37:37;;;;;;;9.05;6.90;;;;;;;18.55;100.00;93092.16;5103725;28;20044;-72
2023/06/18 10:40:06;;;;;;;7.38;4.85;;;;;;;18.57;100.00;93100.50;5093005;28;20078;-72
2023/06/18 10:42:34;;;;;;;13.40;7.70;;;;;;;18.69;100.00;93098.41;5094984;28;20096;-72
2023/06/18 10:45:10;;;;;;;6.35;4.88;;;;;;;18.87;100.00;93088.47;5110859;28;20050;-72
2023/06/18 10:47:37;;;;;;;6.07;4.72;;;;;;;18.81;100.00;93097.31;5089029;28;20043;-72
2023/06/18 10:50:16;;;;;;;7.22;4.97;;;;;;;18.79;100.00;93094.22;5100934;28;20052;-72
2023/06/18 10:52:44;;;;;;;7.03;4.78;;;;;;;18.77;100.00;93084.06;5110557;28;20039;-72
2023/06/18 10:55:14;;;;;;;5.32;3.75;;;;;;;18.37;100.00;93096.84;5090727;28;20085;-72
2023/06/18 10:57:42;;;;;;;5.68;4.07;;;;;;;18.66;100.00;93093.69;5102836;28;20451;-72
2023/06/18 11:00:17;;;;;;;5.55;4.28;;;;;;;18.88;100.00;93091.84;5110502;28;20092;-72
2023/06/18 11:02:46;;;;;;;4.88;3.85;;;;;;;18.59;100.00;93059.38;5082179;28;20056;-72
2023/06/18 11:05:17;;;;;;;5.15;4.03;;;;;;;18.98;100.00;93093.66;5097913;28;20055;-72
2023/06/18 11:07:44;;;;;;;5.63;4.10;;;;;;;19.04;100.00;93083.00;5093248;28;20147;-72
2023/06/18 11:10:12;;;;;;;6.90;4.55;;;;;;;19.14;100.00;93063.94;5081963;28;20049;-72
2023/06/18 11:12:44;;;;;;;5.90;4.07;;;;;;;19.33;100.00;93084.16;5106005;28;20088;-72
2023/06/18 11:15:18;;;;;;;7.50;4.10;;;;;;;19.46;100.00;93086.22;5109901;28;20040;-72
2023/06/18 11:17:48;;;;;;;5.65;4.00;;;;;;;19.54;100.00;93091.91;5109741;28;20048;-72